Time;durP1;ratioP1;P1;durP2;ratioP2;P2;SDS_P1;SDS_P2;PMS_P1;PMS_P2;Temp;Humidity;BMP_temperature;BMP_pressure;BME280_temperature;BME280_humidity;BME280_pressure;Samples;Min_cycle;Max_cycle;Signal;HPM_P1;HPM_P2
2023/08/14 00:00:42;;;;;;;7.10;3.50;;;;;;;17.38;69.88;100441.91;10167517;29;20055;-78
2023/08/14 00:05:45;;;;;;;7.03;3.53;;;;;;;17.35;69.98;100446.84;10169793;29;20040;-77
2023/08/14 00:10:51;;;;;;;7.03;4.53;;;;;;;17.37;69.87;100442.94;10161322;29;20048;-79
2023/08/14 00:15:54;;;;;;;8.77;3.95;;;;;;;17.38;69.88;100441.91;10173256;29;20048;-78
2023/08/14 00:20:57;;;;;;;4.90;3.53;;;;;;;17.44;69.86;100451.25;10171113;29;20073;-77
2023/08/14 00:26:01;;;;;;;9.68;4.68;;;;;;;17.36;69.95;100448.50;10178828;29;20051;-79
2023/08/14 00:31:04;;;;;;;3.92;3.28;;;;;;;17.35;70.09;100454.97;10174006;29;20059;-77
2023/08/14 00:36:07;;;;;;;5.75;3.45;;;;;;;17.33;70.13;100452.41;10169587;29;20048;-79
2023/08/14 00:41:11;;;;;;;9.10;3.28;;;;;;;17.34;70.04;100445.13;10177884;29;20139;-79
2023/08/14 00:46:15;;;;;;;3.72;3.33;;;;;;;17.36;70.00;100449.38;10175307;29;20044;-79
2023/08/14 00:51:21;;;;;;;8.40;3.35;;;;;;;17.40;69.93;100442.59;10165352;29;20040;-78
2023/08/14 00:56:28;;;;;;;11.95;3.55;;;;;;;17.42;69.89;100443.28;10176371;29;20047;-78
2023/08/14 01:01:31;;;;;;;7.72;3.63;;;;;;;17.38;69.96;100446.50;10173931;29;20044;-79
2023/08/14 01:06:33;;;;;;;4.68;3.20;;;;;;;17.43;70.04;100435.97;10185169;29;20040;-79
2023/08/14 01:11:47;;;;;;;7.20;3.03;;;;;;;17.35;70.05;100447.66;10187986;29;20058;-80
2023/08/14 01:16:54;;;;;;;8.48;3.55;;;;;;;17.33;70.29;100440.72;10173203;29;20048;-80
2023/08/14 01:22:04;;;;;;;6.97;3.90;;;;;;;17.25;70.32;100449.69;10168170;29;20127;-79
2023/08/14 01:27:09;;;;;;;9.55;3.45;;;;;;;17.11;70.75;100447.59;10173277;29;20419;-78
2023/08/14 01:32:12;;;;;;;7.40;3.25;;;;;;;17.06;71.49;100450.81;10171079;29;20445;-77
2023/08/14 01:37:21;;;;;;;5.47;3.33;;;;;;;17.08;71.20;100437.91;10171711;29;20560;-79
2023/08/14 01:42:33;;;;;;;9.60;3.10;;;;;;;17.04;71.01;100437.41;10171948;29;20389;-78
2023/08/14 01:47:39;;;;;;;4.53;3.15;;;;;;;17.06;70.84;100425.50;10171070;29;20044;-77
2023/08/14 01:52:42;;;;;;;8.00;3.33;;;;;;;17.00;70.76;100430.63;10183720;29;20063;-77
2023/08/14 01:57:46;;;;;;;7.82;3.10;;;;;;;16.98;70.85;100432.63;10166685;29;20562;-77
2023/08/14 02:02:49;;;;;;;4.35;2.88;;;;;;;16.89;70.81;100428.19;10168389;29;20044;-78
2023/08/14 02:07:54;;;;;;;6.13;3.72;;;;;;;16.88;70.94;100423.78;10165280;29;20040;-78
2023/08/14 02:12:58;;;;;;;4.25;3.25;;;;;;;16.88;71.31;100431.91;10168031;29;20456;-78
2023/08/14 02:18:01;;;;;;;5.07;3.35;;;;;;;16.91;71.06;100425.31;10170551;29;20036;-78
2023/08/14 02:23:04;;;;;;;4.18;3.13;;;;;;;16.92;71.45;100414.31;10166736;29;20063;-77
2023/08/14 02:28:09;;;;;;;6.47;3.28;;;;;;;16.95;71.09;100410.38;10163004;29;20052;-76
2023/08/14 02:33:12;;;;;;;7.22;3.65;;;;;;;16.85;71.62;100391.56;10174994;29;20103;-77
2023/08/14 02:38:16;;;;;;;7.68;3.83;;;;;;;16.73;71.57;100392.88;10169729;29;20488;-77
2023/08/14 02:43:20;;;;;;;6.63;4.30;;;;;;;16.53;72.36;100393.13;10167171;29;20056;-77
2023/08/14 02:48:23;;;;;;;5.82;4.00;;;;;;;16.54;72.59;100389.44;10168990;29;20500;-78
2023/08/14 02:53:26;;;;;;;7.30;3.95;;;;;;;16.53;72.86;100385.00;10164660;29;20056;-77
2023/08/14 02:58:31;;;;;;;7.13;3.40;;;;;;;16.58;72.69;100385.34;10169470;29;20123;-79
2023/08/14 03:03:34;;;;;;;5.82;3.28;;;;;;;16.58;72.64;100377.22;10168557;29;20066;-78
2023/08/14 03:08:37;;;;;;;5.25;3.50;;;;;;;16.54;72.40;100372.31;10169729;29;20088;-77
2023/08/14 03:13:41;;;;;;;7.90;3.95;;;;;;;16.46;72.65;100381.25;10173498;29;20087;-79
2023/08/14 03:18:44;;;;;;;5.57;3.78;;;;;;;16.48;72.88;100381.06;10167987;29;20055;-79
2023/08/14 03:23:48;;;;;;;6.22;3.15;;;;;;;16.50;72.77;100376.34;10166289;29;20144;-77
2023/08/14 03:28:52;;;;;;;8.88;3.60;;;;;;;16.38;73.17;100361.41;10164028;29;20496;-77
2023/08/14 03:33:55;;;;;;;7.47;3.95;;;;;;;16.27;73.21;100366.09;10174771;29;20058;-77
2023/08/14 03:38:59;;;;;;;5.50;3.70;;;;;;;16.18;73.62;100369.75;10165502;29;20040;-78
2023/08/14 03:44:05;;;;;;;5.78;4.00;;;;;;;16.20;74.02;100373.13;10179576;29;20358;-78
2023/08/14 03:49:09;;;;;;;8.75;3.55;;;;;;;16.20;73.81;100372.28;10172783;29;20154;-78
2023/08/14 03:54:12;;;;;;;9.70;3.42;;;;;;;16.12;73.77;100371.22;10174267;29;20055;-79
2023/08/14 03:59:16;;;;;;;8.65;3.83;;;;;;;15.59;75.84;100366.81;10174553;29;20058;-78
2023/08/14 04:04:19;;;;;;;6.30;3.85;;;;;;;15.75;75.63;100374.22;10169302;29;20468;-78
2023/08/14 04:09:22;;;;;;;7.70;3.60;;;;;;;15.43;76.36;100380.22;10179812;29;20048;-78
2023/08/14 04:14:27;;;;;;;10.27;3.92;;;;;;;15.26;77.42;100377.31;10179496;29;20482;-77
2023/08/14 04:19:29;;;;;;;4.28;3.83;;;;;;;15.15;78.51;100380.28;10176012;29;20052;-80
2023/08/14 04:24:32;;;;;;;7.55;3.83;;;;;;;15.50;78.05;100369.63;10173288;29;20059;-77
2023/08/14 04:29:37;;;;;;;8.07;4.40;;;;;;;15.69;77.29;100364.88;10171676;29;20056;-78
2023/08/14 04:34:39;;;;;;;13.02;5.10;;;;;;;15.93;76.86;100360.59;10185640;29;20043;-78
2023/08/14 04:39:43;;;;;;;7.53;4.03;;;;;;;16.01;75.70;100357.09;10182154;29;20071;-79
2023/08/14 04:44:47;;;;;;;4.88;3.80;;;;;;;16.04;75.45;100360.31;10173155;29;20141;-79
2023/08/14 04:49:50;;;;;;;7.65;3.90;;;;;;;16.11;75.39;100349.72;10161143;29;20054;-78
2023/08/14 04:54:53;;;;;;;6.95;4.07;;;;;;;16.18;74.90;100353.50;10181051;29;20044;-79
2023/08/14 05:00:01;;;;;;;11.52;4.38;;;;;;;16.18;74.96;100360.75;10177894;29;20051;-79
2023/08/14 05:05:05;;;;;;;12.95;4.43;;;;;;;16.30;74.42;100351.38;10153870;29;20063;-78
2023/08/14 05:10:09;;;;;;;6.10;4.20;;;;;;;16.41;74.17;100355.66;10173329;29;20044;-77
2023/08/14 05:15:13;;;;;;;7.95;4.07;;;;;;;16.50;74.01;100362.78;10172893;29;20048;-78
2023/08/14 05:20:16;;;;;;;6.45;4.28;;;;;;;16.62;74.20;100376.91;10177133;29;20515;-77
2023/08/14 05:25:19;;;;;;;6.78;4.10;;;;;;;16.69;73.94;100370.66;10189579;29;20040;-77
2023/08/14 05:30:23;;;;;;;12.35;4.90;;;;;;;16.79;73.73;100386.81;10173551;29;20048;-78
2023/08/14 05:35:27;;;;;;;8.32;4.18;;;;;;;16.83;73.60;100390.03;10172892;29;20055;-80
2023/08/14 05:40:30;;;;;;;8.20;4.35;;;;;;;16.85;73.40;100391.56;10177417;29;20163;-78
2023/08/14 05:45:36;;;;;;;5.97;2.70;;;;;;;16.95;74.26;100400.41;10178308;29;20480;-79
2023/08/14 05:50:40;;;;;;;6.60;3.15;;;;;;;17.22;73.67;100403.88;10172353;29;20064;-78
2023/08/14 05:55:43;;;;;;;5.00;3.10;;;;;;;17.32;73.50;100390.16;10179715;29;20415;-79
2023/08/14 06:00:47;;;;;;;4.60;3.13;;;;;;;17.62;73.17;100378.63;10172606;29;20039;-79
2023/08/14 06:05:50;;;;;;;9.32;3.03;;;;;;;17.99;71.93;100376.38;10181128;29;20615;-78
2023/08/14 06:10:53;;;;;;;21.88;5.80;;;;;;;18.25;70.29;100373.44;10166776;29;20036;-79
2023/08/14 06:15:57;;;;;;;5.32;3.50;;;;;;;18.43;69.40;100384.94;10170463;29;20762;-78
2023/08/14 06:21:00;;;;;;;10.90;3.63;;;;;;;18.60;68.71;100385.72;10171034;29;20428;-78
2023/08/14 06:26:03;;;;;;;5.68;3.50;;;;;;;18.77;68.13;100384.59;10178220;29;20048;-77
2023/08/14 06:31:09;;;;;;;5.65;3.60;;;;;;;19.01;67.69;100393.72;10166061;29;20566;-80
2023/08/14 06:36:12;;;;;;;5.60;3.95;;;;;;;19.21;67.31;100394.09;10172244;29;20393;-78
2023/08/14 06:41:14;;;;;;;8.70;3.88;;;;;;;19.30;65.58;100386.69;10187057;29;20163;-77
2023/08/14 06:46:19;;;;;;;4.93;3.70;;;;;;;19.13;65.70;100384.09;10202063;29;20052;-79
2023/08/14 06:51:22;;;;;;;6.45;3.30;;;;;;;19.59;65.40;100386.00;10178241;29;20103;-79
2023/08/14 06:56:25;;;;;;;7.03;4.47;;;;;;;19.94;64.72;100370.84;10167977;29;20484;-78
2023/08/14 07:01:30;;;;;;;8.93;4.10;;;;;;;20.26;63.73;100372.34;10168625;29;20052;-79
2023/08/14 07:06:33;;;;;;;10.65;4.35;;;;;;;20.79;62.76;100377.72;10170831;29;20050;-78
2023/08/14 07:11:38;;;;;;;7.30;3.85;;;;;;;20.95;61.11;100377.47;10173970;29;20115;-80
2023/08/14 07:16:42;;;;;;;7.70;4.25;;;;;;;20.81;61.09;100364.69;10165439;29;20621;-76
2023/08/14 07:21:46;;;;;;;6.80;3.38;;;;;;;21.11;61.51;100360.03;10172506;29;20508;-78
2023/08/14 07:26:48;;;;;;;7.55;3.45;;;;;;;21.60;60.29;100355.66;10173226;29;20047;-76
2023/08/14 07:31:53;;;;;;;6.55;3.63;;;;;;;22.02;58.83;100362.97;10181546;29;20043;-77
2023/08/14 07:36:55;;;;;;;7.88;3.65;;;;;;;22.14;58.40;100371.44;10180796;29;20044;-77
2023/08/14 07:41:58;;;;;;;9.13;3.40;;;;;;;22.20;58.65;100372.53;10173377;29;20111;-78
2023/08/14 07:47:03;;;;;;;8.15;3.17;;;;;;;22.37;57.45;100375.78;10178869;29;20094;-77
2023/08/14 07:52:06;;;;;;;5.65;3.38;;;;;;;22.76;56.31;100373.25;10187620;29;20460;-77
2023/08/14 07:57:09;;;;;;;6.45;3.33;;;;;;;22.98;55.03;100371.22;10178060;29;20123;-77
2023/08/14 08:02:13;;;;;;;4.85;3.53;;;;;;;23.19;54.72;100370.25;10169918;29;20100;-77
2023/08/14 08:07:16;;;;;;;5.05;3.20;;;;;;;23.58;53.95;100365.00;10172225;29;20493;-78
2023/08/14 08:12:20;;;;;;;8.98;3.97;;;;;;;24.13;53.64;100373.00;10175725;29;20091;-79
2023/08/14 08:17:24;;;;;;;6.45;3.17;;;;;;;24.59;53.59;100363.84;10176324;29;20051;-78
2023/08/14 08:22:27;;;;;;;8.15;3.20;;;;;;;24.70;51.16;100358.50;10172295;29;20048;-77
2023/08/14 08:27:30;;;;;;;8.38;3.10;;;;;;;23.42;53.99;100361.66;10168056;29;20076;-78
2023/08/14 08:32:34;;;;;;;5.05;3.30;;;;;;;24.45;52.20;100361.13;10182040;29;20055;-78
2023/08/14 08:37:37;;;;;;;8.60;3.67;;;;;;;24.77;50.83;100358.47;10175132;29;20044;-77
2023/08/14 08:42:41;;;;;;;7.13;3.35;;;;;;;24.86;50.51;100353.56;10169285;29;20044;-77
2023/08/14 08:47:49;;;;;;;7.20;3.13;;;;;;;24.25;50.53;100354.84;10180605;29;20493;-77
2023/08/14 08:52:53;;;;;;;8.55;2.75;;;;;;;24.46;51.63;100351.81;10168164;29;20044;-78
2023/08/14 08:57:58;;;;;;;5.53;2.92;;;;;;;24.88;51.58;100344.06;10173426;29;20059;-78
2023/08/14 09:03:02;;;;;;;5.85;3.25;;;;;;;24.84;50.19;100341.94;10133414;29;1113956;-78
2023/08/14 09:08:08;;;;;;;4.03;2.83;;;;;;;25.08;50.70;100348.63;10179071;29;21298;-78
2023/08/14 09:13:11;;;;;;;5.88;3.15;;;;;;;24.98;49.82;100351.78;10172645;29;20500;-77
2023/08/14 09:18:20;;;;;;;6.32;3.05;;;;;;;25.03;50.75;100362.16;10166613;29;20091;-77
2023/08/14 09:23:23;;;;;;;5.43;3.08;;;;;;;25.35;52.03;100352.88;10179733;29;20570;-76
2023/08/14 09:28:27;;;;;;;8.60;2.92;;;;;;;26.06;51.27;100357.13;10175459;29;20120;-76
2023/08/14 09:33:32;;;;;;;7.45;3.00;;;;;;;26.32;46.15;100344.16;10171968;29;20496;-76
2023/08/14 09:38:35;;;;;;;6.90;2.70;;;;;;;26.31;46.83;100325.97;10177792;29;20055;-76
2023/08/14 09:43:40;;;;;;;5.30;2.67;;;;;;;27.06;44.23;100327.53;10176641;29;20044;-77
2023/08/14 09:48:46;;;;;;;7.43;2.78;;;;;;;27.00;44.98;100329.34;10170802;29;20040;-76
2023/08/14 09:53:50;;;;;;;7.13;2.65;;;;;;;27.25;45.13;100342.94;10175108;29;20052;-77
2023/08/14 09:58:55;;;;;;;8.98;3.05;;;;;;;27.56;43.37;100347.38;10174327;29;20416;-76
2023/08/14 10:04:00;;;;;;;3.60;2.80;;;;;;;27.75;43.24;100342.56;10172438;29;20070;-76
2023/08/14 10:09:04;;;;;;;7.95;2.92;;;;;;;27.96;42.85;100329.25;10169625;29;20051;-76
2023/08/14 10:14:09;;;;;;;4.70;2.40;;;;;;;28.04;41.30;100318.72;10170262;29;20408;-77
2023/08/14 10:19:17;;;;;;;8.00;3.15;;;;;;;27.62;41.25;100317.97;10168287;29;20037;-76
2023/08/14 10:24:23;;;;;;;5.45;2.85;;;;;;;28.30;42.75;100315.66;10167653;29;20090;-77
2023/08/14 10:29:26;;;;;;;6.65;2.70;;;;;;;29.15;39.44;100317.66;10168536;29;20056;-76
2023/08/14 10:34:31;;;;;;;4.85;2.53;;;;;;;28.49;40.14;100312.47;10173472;29;20069;-78
2023/08/14 10:39:36;;;;;;;3.75;2.03;;;;;;;27.45;41.25;100315.06;10175518;29;20051;-76
2023/08/14 10:44:39;;;;;;;5.15;2.45;;;;;;;28.49;41.17;100304.19;10172609;29;20155;-77
2023/08/14 10:49:46;;;;;;;5.75;2.25;;;;;;;29.28;39.83;100310.97;10170736;29;20518;-77
2023/08/14 10:54:53;;;;;;;4.28;2.40;;;;;;;28.03;39.97;100316.22;10166661;29;20059;-78
2023/08/14 10:59:58;;;;;;;5.68;2.47;;;;;;;28.53;38.69;100306.53;10164134;29;20048;-76
2023/08/14 11:05:12;;;;;;;5.43;2.10;;;;;;;28.96;39.07;100299.59;10170429;29;20087;-77
2023/08/14 11:10:16;;;;;;;5.40;2.53;;;;;;;28.53;39.45;100285.25;10172987;29;20096;-77
2023/08/14 11:15:21;;;;;;;3.78;2.63;;;;;;;28.43;41.05;100279.47;10164289;29;20040;-77
2023/08/14 11:20:27;;;;;;;5.20;2.20;;;;;;;27.60;40.63;100278.75;10168551;29;20068;-79
2023/08/14 11:25:31;;;;;;;4.38;2.50;;;;;;;29.17;40.62;100279.53;10161527;29;20567;-77
2023/08/14 11:30:36;;;;;;;6.50;2.85;;;;;;;30.36;37.58;100272.75;10170044;29;20526;-79
2023/08/14 11:35:40;;;;;;;4.28;2.15;;;;;;;30.35;37.09;100264.69;10168162;29;20051;-78
2023/08/14 11:40:43;;;;;;;2.45;2.10;;;;;;;30.99;36.99;100258.44;10170463;29;20040;-76
2023/08/14 11:45:46;;;;;;;5.90;2.10;;;;;;;30.52;36.61;100275.69;10163830;29;20475;-76
2023/08/14 11:50:51;;;;;;;5.47;2.58;;;;;;;30.74;36.30;100270.97;10173226;29;20140;-77
2023/08/14 11:55:54;;;;;;;2.97;1.83;;;;;;;30.63;36.16;100275.53;10166969;29;20050;-78
2023/08/14 12:00:57;;;;;;;5.28;2.08;;;;;;;30.55;36.71;100261.31;10168631;29;20095;-78
2023/08/14 12:06:03;;;;;;;3.70;2.50;;;;;;;30.40;36.80;100271.13;10167100;29;20052;-78
2023/08/14 12:11:07;;;;;;;6.30;2.70;;;;;;;29.81;37.37;100257.91;10163505;29;20048;-78
2023/08/14 12:16:10;;;;;;;3.30;2.15;;;;;;;31.02;37.53;100256.00;10196379;29;20083;-77
2023/08/14 12:21:27;;;;;;;4.75;2.30;;;;;;;29.46;38.17;100254.56;10196268;29;20044;-78
2023/08/14 12:26:36;;;;;;;5.18;2.50;;;;;;;30.09;38.51;100252.41;10176685;29;20079;-78
2023/08/14 12:31:39;;;;;;;5.82;2.75;;;;;;;30.25;37.88;100260.72;10164144;29;20044;-78
2023/08/14 12:36:43;;;;;;;5.38;2.85;;;;;;;28.91;41.13;100258.88;10173768;29;20048;-78
2023/08/14 12:41:46;;;;;;;4.55;2.40;;;;;;;28.56;39.80;100259.06;10169923;29;20042;-78
2023/08/14 12:46:49;;;;;;;4.75;2.65;;;;;;;28.28;41.69;100275.34;10171752;29;20135;-77
2023/08/14 12:51:53;;;;;;;4.93;2.28;;;;;;;29.32;39.53;100277.03;10174755;29;20040;-78
2023/08/14 12:56:56;;;;;;;6.53;2.30;;;;;;;30.36;38.33;100266.34;10170754;29;20044;-78
2023/08/14 13:02:03;;;;;;;6.25;2.78;;;;;;;29.78;39.54;100263.09;10171655;29;20028;-78
2023/08/14 13:07:08;;;;;;;3.58;2.20;;;;;;;28.76;41.29;100253.06;10171235;29;20051;-78
2023/08/14 13:12:10;;;;;;;4.10;2.30;;;;;;;28.79;41.27;100255.31;10180950;29;20492;-78
2023/08/14 13:17:13;;;;;;;4.28;2.42;;;;;;;28.32;42.91;100259.09;10177350;29;20617;-78
2023/08/14 13:22:18;;;;;;;7.07;3.03;;;;;;;28.63;42.10;100259.72;10173373;29;20059;-78
2023/08/14 13:27:21;;;;;;;7.97;3.20;;;;;;;28.65;42.35;100255.63;10177294;29;20063;-78
2023/08/14 13:32:24;;;;;;;5.28;2.65;;;;;;;29.21;41.44;100253.06;10176143;29;20144;-78
2023/08/14 13:37:29;;;;;;;5.88;2.83;;;;;;;29.30;41.54;100234.13;10159902;29;20056;-78
2023/08/14 13:42:31;;;;;;;5.28;2.72;;;;;;;28.39;42.86;100237.72;10166480;29;20049;-77
2023/08/14 13:47:34;;;;;;;4.75;2.20;;;;;;;28.50;43.24;100231.28;10164565;29;20072;-78
2023/08/14 13:52:55;;;;;;;5.75;2.90;;;;;;;28.43;42.81;100227.00;10177605;29;20050;-77
2023/08/14 13:57:58;;;;;;;6.40;2.78;;;;;;;28.18;43.45;100213.53;10177094;29;20059;-77
2023/08/14 14:03:01;;;;;;;4.45;2.33;;;;;;;28.20;43.38;100198.41;10165224;29;20389;-77
2023/08/14 14:08:09;;;;;;;5.65;2.80;;;;;;;28.79;42.48;100178.78;10167550;29;20036;-77
2023/08/14 14:13:11;;;;;;;3.35;2.47;;;;;;;28.88;42.20;100163.47;10171358;29;20059;-77
2023/08/14 14:18:15;;;;;;;7.88;3.33;;;;;;;28.44;43.02;100146.66;10169553;29;20039;-77
2023/08/14 14:23:19;;;;;;;5.82;2.45;;;;;;;28.30;43.45;100145.28;10166695;29;20059;-76
2023/08/14 14:28:22;;;;;;;4.93;2.70;;;;;;;28.20;43.27;100134.06;10163722;29;20059;-77
2023/08/14 14:33:25;;;;;;;4.45;2.55;;;;;;;27.72;44.37;100136.09;10172611;29;20044;-77
2023/08/14 14:38:29;;;;;;;7.75;2.83;;;;;;;27.79;44.82;100135.97;10171993;29;20044;-77
2023/08/14 14:43:33;;;;;;;3.38;2.72;;;;;;;27.67;44.97;100132.41;10162590;29;20060;-76
2023/08/14 14:48:35;;;;;;;4.57;2.78;;;;;;;27.87;44.64;100132.00;10155172;29;20096;-77
2023/08/14 14:53:40;;;;;;;4.35;2.65;;;;;;;28.02;45.81;100118.53;10159864;29;20506;-77
2023/08/14 14:58:42;;;;;;;6.20;2.80;;;;;;;28.59;43.89;100109.38;10160583;29;20115;-77
2023/08/14 15:03:45;;;;;;;5.72;2.58;;;;;;;29.49;43.14;100108.25;10161353;29;20097;-77
2023/08/14 15:08:50;;;;;;;8.93;2.97;;;;;;;29.51;42.47;100110.75;10161367;29;20132;-77
2023/08/14 15:13:52;;;;;;;5.00;2.45;;;;;;;28.80;43.83;100111.38;10157865;29;20052;-77
2023/08/14 15:18:55;;;;;;;8.13;3.22;;;;;;;28.83;44.38;100110.03;10162559;29;20048;-77
2023/08/14 15:23:59;;;;;;;6.03;3.20;;;;;;;28.86;44.06;100126.13;10169905;29;20040;-77
2023/08/14 15:29:02;;;;;;;5.97;2.58;;;;;;;28.13;45.47;100136.13;10167598;29;20048;-77
2023/08/14 15:34:05;;;;;;;4.68;2.47;;;;;;;28.00;46.16;100131.72;10165403;29;20123;-77
2023/08/14 15:39:09;;;;;;;6.65;3.25;;;;;;;28.46;45.38;100125.13;10155494;29;20047;-77
2023/08/14 15:44:12;;;;;;;4.40;2.97;;;;;;;28.97;45.12;100125.19;10153405;29;20051;-77
2023/08/14 15:49:15;;;;;;;4.22;2.53;;;;;;;28.50;46.55;100117.19;10165735;29;20136;-76
2023/08/14 15:54:19;;;;;;;6.43;2.90;;;;;;;29.13;45.26;100104.16;10171086;29;20095;-76
2023/08/14 15:59:22;;;;;;;6.88;3.00;;;;;;;29.24;44.96;100103.22;10168840;29;20064;-76
2023/08/14 16:04:25;;;;;;;7.32;3.10;;;;;;;29.40;45.16;100139.38;10170816;29;20693;-77
2023/08/14 16:09:29;;;;;;;5.40;2.72;;;;;;;29.43;44.05;100125.88;10173530;29;20048;-77
2023/08/14 16:14:32;;;;;;;5.25;2.53;;;;;;;28.84;45.46;100142.09;10170962;29;20051;-75
2023/08/14 16:19:35;;;;;;;4.10;2.90;;;;;;;28.47;47.30;100139.81;10171464;29;20098;-75
2023/08/14 16:24:40;;;;;;;4.78;3.08;;;;;;;28.16;48.62;100130.09;10159741;29;20154;-76
2023/08/14 16:29:43;;;;;;;5.25;3.40;;;;;;;27.77;48.80;100152.78;10162086;29;20133;-76
2023/08/14 16:34:47;;;;;;;6.25;2.60;;;;;;;27.46;49.14;100140.25;10188163;29;20047;-77
2023/08/14 16:39:52;;;;;;;5.13;2.75;;;;;;;27.63;49.33;100140.34;10173544;29;20040;-75
2023/08/14 16:44:55;;;;;;;6.57;2.45;;;;;;;27.23;50.52;100145.75;10170784;29;20040;-75
2023/08/14 16:49:58;;;;;;;3.70;2.38;;;;;;;26.74;51.46;100137.66;10176974;29;20056;-76
2023/08/14 16:55:02;;;;;;;3.95;2.70;;;;;;;26.44;51.76;100137.72;10176330;29;20048;-77
2023/08/14 17:00:07;;;;;;;2.85;2.40;;;;;;;26.44;51.56;100124.81;10175857;29;20058;-76
2023/08/14 17:05:10;;;;;;;4.82;2.83;;;;;;;26.71;51.18;100116.09;10174559;29;20069;-76
2023/08/14 17:10:14;;;;;;;4.45;2.90;;;;;;;26.98;51.22;100129.44;10176023;29;20044;-75
2023/08/14 17:15:17;;;;;;;5.32;2.50;;;;;;;27.35;49.94;100132.81;10174851;29;20055;-75
2023/08/14 17:20:25;;;;;;;7.32;2.75;;;;;;;28.55;48.35;100139.44;10173350;29;20083;-76
2023/08/14 17:25:29;;;;;;;4.45;2.70;;;;;;;31.74;42.16;100129.72;10170215;29;20103;-77
2023/08/14 17:30:36;;;;;;;5.20;2.53;;;;;;;31.65;41.83;100125.75;10179166;29;20040;-76
2023/08/14 17:35:38;;;;;;;7.28;2.92;;;;;;;32.15;41.15;100129.84;10174248;29;20052;-76
2023/08/14 17:40:43;;;;;;;4.20;2.35;;;;;;;31.82;41.67;100136.69;10169398;29;20575;-77
2023/08/14 17:45:48;;;;;;;4.60;2.60;;;;;;;30.53;43.80;100124.97;10169202;29;20072;-77
2023/08/14 17:50:51;;;;;;;4.60;3.10;;;;;;;28.45;48.07;100131.75;10176716;29;20044;-75
2023/08/14 17:55:56;;;;;;;6.32;2.83;;;;;;;27.33;51.10;100134.97;10172506;29;20394;-76
2023/08/14 18:00:59;;;;;;;4.30;2.72;;;;;;;26.60;53.21;100139.78;10164533;29;20052;-75
2023/08/14 18:06:03;;;;;;;4.18;2.75;;;;;;;26.35;54.46;100142.72;10171381;29;20052;-76
2023/08/14 18:11:07;;;;;;;5.25;3.08;;;;;;;25.90;55.86;100125.78;10152203;29;20072;-75
2023/08/14 18:16:10;;;;;;;7.43;2.78;;;;;;;25.74;56.54;100118.97;10165788;29;20115;-75
2023/08/14 18:21:13;;;;;;;4.35;3.13;;;;;;;25.61;56.93;100119.94;10167287;29;20105;-76
2023/08/14 18:26:30;;;;;;;8.55;3.80;;;;;;;25.50;57.52;100127.06;10163705;29;20039;-75
2023/08/14 18:31:33;;;;;;;7.55;5.60;;;;;;;25.40;57.88;100130.34;10162848;29;20040;-75
2023/08/14 18:36:36;;;;;;;9.73;5.43;;;;;;;25.34;58.57;100128.53;10157795;29;20397;-76
2023/08/14 18:41:40;;;;;;;7.07;4.95;;;;;;;25.27;59.05;100129.66;10167332;29;20087;-76
2023/08/14 18:46:43;;;;;;;5.93;4.38;;;;;;;25.12;59.63;100130.88;10160610;29;20047;-76
2023/08/14 18:51:46;;;;;;;7.68;3.88;;;;;;;24.89;60.37;100125.13;10178232;29;20048;-76
2023/08/14 18:56:50;;;;;;;6.18;3.80;;;;;;;24.73;60.78;100126.53;10173679;29;20048;-75
2023/08/14 19:01:53;;;;;;;6.85;3.83;;;;;;;24.66;61.23;100129.34;10177068;29;20728;-75
2023/08/14 19:06:56;;;;;;;11.35;4.20;;;;;;;24.49;61.75;100120.81;10167377;29;20495;-75
2023/08/14 19:12:00;;;;;;;8.95;3.85;;;;;;;24.47;61.88;100124.84;10176881;29;20488;-78
2023/08/14 19:17:04;;;;;;;10.23;4.22;;;;;;;24.37;62.69;100128.03;10178340;29;20393;-77
2023/08/14 19:22:13;;;;;;;7.60;4.00;;;;;;;24.22;63.55;100122.03;10184921;29;20123;-76
2023/08/14 19:27:18;;;;;;;6.20;4.65;;;;;;;24.15;63.87;100126.69;10183272;29;20072;-78
2023/08/14 19:32:21;;;;;;;10.25;4.65;;;;;;;24.02;64.37;100125.69;10189051;29;20119;-77
2023/08/14 19:37:24;;;;;;;7.78;4.85;;;;;;;23.92;64.12;100128.09;10183962;29;20055;-77
2023/08/14 19:42:28;;;;;;;14.70;5.13;;;;;;;23.88;64.75;100132.31;10179621;29;20054;-76
2023/08/14 19:47:31;;;;;;;7.63;4.75;;;;;;;23.86;64.29;100131.69;10185877;29;20119;-78
2023/08/14 19:52:34;;;;;;;9.93;5.05;;;;;;;23.85;64.27;100135.50;10177290;29;20044;-77
2023/08/14 19:57:38;;;;;;;5.38;3.97;;;;;;;23.82;64.09;100131.28;10182886;29;20056;-78
2023/08/14 20:02:41;;;;;;;6.88;3.80;;;;;;;23.85;64.17;100132.75;10188079;29;20064;-78
2023/08/14 20:07:44;;;;;;;4.03;3.10;;;;;;;23.77;64.26;100130.25;10185566;29;20047;-78
2023/08/14 20:12:48;;;;;;;9.88;4.57;;;;;;;23.74;64.46;100117.78;10191260;29;20127;-78
2023/08/14 20:17:51;;;;;;;6.28;4.50;;;;;;;23.75;64.65;100110.41;10188645;29;20040;-77
2023/08/14 20:22:54;;;;;;;10.88;5.20;;;;;;;23.66;64.72;100105.16;10180168;29;20040;-78
2023/08/14 20:27:58;;;;;;;9.18;4.43;;;;;;;23.60;65.18;100108.78;10189536;29;20472;-78
2023/08/14 20:33:01;;;;;;;9.63;4.63;;;;;;;23.52;65.27;100111.75;10183648;29;20044;-78
2023/08/14 20:38:04;;;;;;;6.50;4.28;;;;;;;23.40;65.87;100129.94;10177006;29;20044;-77
2023/08/14 20:43:11;;;;;;;9.10;4.57;;;;;;;23.30;66.34;100132.28;10182172;29;20131;-78
2023/08/14 20:48:14;;;;;;;5.40;3.80;;;;;;;23.23;66.34;100136.91;10182140;29;20146;-78
2023/08/14 20:53:16;;;;;;;6.35;3.95;;;;;;;23.09;66.76;100136.94;10169080;29;20051;-78
2023/08/14 20:58:21;;;;;;;10.43;4.70;;;;;;;22.95;67.96;100149.78;10171035;29;20071;-78
2023/08/14 21:03:23;;;;;;;6.30;4.30;;;;;;;22.89;68.30;100153.38;10170014;29;20551;-77
2023/08/14 21:08:27;;;;;;;8.65;4.97;;;;;;;22.87;68.74;100152.72;10168149;29;20044;-77
2023/08/14 21:13:31;;;;;;;6.07;4.43;;;;;;;22.91;69.30;100150.44;10164628;29;20040;-77
2023/08/14 21:18:34;;;;;;;8.07;4.18;;;;;;;22.96;69.11;100156.13;10164973;29;20119;-77
2023/08/14 21:23:36;;;;;;;7.57;4.35;;;;;;;22.92;69.71;100166.63;10162524;29;20052;-78
2023/08/14 21:28:41;;;;;;;5.25;4.10;;;;;;;22.95;69.92;100168.09;10163359;29;20059;-77
2023/08/14 21:33:47;;;;;;;5.80;4.38;;;;;;;22.86;70.06;100164.75;10159327;29;20048;-78
2023/08/14 21:38:49;;;;;;;9.02;4.68;;;;;;;22.88;69.93;100172.75;10169579;29;20048;-77
2023/08/14 21:43:54;;;;;;;6.45;4.57;;;;;;;22.81;70.16;100180.13;10160365;29;20061;-79
2023/08/14 21:48:56;;;;;;;7.47;4.60;;;;;;;22.73;70.07;100181.16;10173649;29;20040;-77
2023/08/14 21:53:59;;;;;;;9.10;5.00;;;;;;;22.70;70.12;100181.59;10165783;29;20071;-77
2023/08/14 21:59:04;;;;;;;7.82;4.30;;;;;;;22.63;69.96;100188.97;10164745;29;20040;-77
2023/08/14 22:04:06;;;;;;;5.53;4.18;;;;;;;22.56;69.97;100188.94;10168644;29;20511;-77
2023/08/14 22:09:09;;;;;;;8.40;4.40;;;;;;;22.53;70.04;100197.56;10165922;29;20417;-76
2023/08/14 22:14:14;;;;;;;10.27;4.32;;;;;;;22.54;69.82;100199.25;10165677;29;20036;-77
2023/08/14 22:19:16;;;;;;;5.70;4.50;;;;;;;22.49;69.61;100199.00;10167154;29;20095;-77
2023/08/14 22:24:19;;;;;;;6.45;4.60;;;;;;;22.45;69.69;100205.97;10171292;29;20111;-77
2023/08/14 22:29:43;;;;;;;6.25;4.75;;;;;;;22.34;70.02;100207.38;10168260;29;20123;-78
2023/08/14 22:34:45;;;;;;;8.45;4.15;;;;;;;22.32;70.03;100209.47;10170777;29;20423;-77
2023/08/14 22:39:48;;;;;;;8.00;4.05;;;;;;;22.36;70.01;100193.50;10169407;29;20112;-78
2023/08/14 22:44:52;;;;;;;7.18;4.55;;;;;;;22.39;69.50;100191.19;10164741;29;20051;-77
2023/08/14 22:49:55;;;;;;;6.22;4.38;;;;;;;22.30;70.11;100184.22;10166494;29;20055;-77
2023/08/14 22:54:58;;;;;;;6.00;4.75;;;;;;;22.23;70.39;100181.47;10160362;29;20088;-77
2023/08/14 23:00:02;;;;;;;6.63;4.30;;;;;;;22.23;70.59;100183.34;10179622;29;20064;-78
2023/08/14 23:05:06;;;;;;;5.80;4.78;;;;;;;22.30;70.47;100179.59;10200636;29;20116;-78
2023/08/14 23:10:10;;;;;;;5.65;4.53;;;;;;;22.35;70.00;100178.94;10167314;29;20048;-78
2023/08/14 23:15:14;;;;;;;8.15;4.75;;;;;;;22.38;70.23;100183.16;10159197;29;20503;-77